sensor_id;sensor_type;location;lat;lon;timestamp;P1;durP1;ratioP1;P2;durP2;ratioP2
67508;SDS011;54354;44.724;11.284;2022-07-23T00:00:53;24.05;;;14.23;;
67508;SDS011;54354;44.724;11.284;2022-07-23T00:03:19;18.05;;;13.93;;
67508;SDS011;54354;44.724;11.284;2022-07-23T00:05:44;21.50;;;14.77;;
67508;SDS011;54354;44.724;11.284;2022-07-23T00:08:10;21.73;;;14.68;;
67508;SDS011;54354;44.724;11.284;2022-07-23T00:10:36;19.60;;;13.52;;
67508;SDS011;54354;44.724;11.284;2022-07-23T00:13:02;24.80;;;14.40;;
67508;SDS011;54354;44.724;11.284;2022-07-23T00:15:28;20.05;;;14.18;;
67508;SDS011;54354;44.724;11.284;2022-07-23T00:17:53;21.90;;;12.90;;
67508;SDS011;54354;44.724;11.284;2022-07-23T00:20:19;21.83;;;13.43;;
67508;SDS011;54354;44.724;11.284;2022-07-23T00:22:47;20.98;;;14.05;;
67508;SDS011;54354;44.724;11.284;2022-07-23T00:25:14;15.90;;;13.80;;
67508;SDS011;54354;44.724;11.284;2022-07-23T00:27:39;27.92;;;13.32;;
67508;SDS011;54354;44.724;11.284;2022-07-23T00:30:05;19.50;;;14.00;;
67508;SDS011;54354;44.724;11.284;2022-07-23T00:32:31;20.30;;;13.48;;
67508;SDS011;54354;44.724;11.284;2022-07-23T00:34:57;17.60;;;13.60;;
67508;SDS011;54354;44.724;11.284;2022-07-23T00:37:22;24.05;;;13.80;;
67508;SDS011;54354;44.724;11.284;2022-07-23T00:39:48;17.00;;;12.35;;
67508;SDS011;54354;44.724;11.284;2022-07-23T00:42:13;19.92;;;12.55;;
67508;SDS011;54354;44.724;11.284;2022-07-23T00:44:39;23.35;;;12.30;;
67508;SDS011;54354;44.724;11.284;2022-07-23T00:47:04;22.00;;;12.15;;
67508;SDS011;54354;44.724;11.284;2022-07-23T00:49:31;18.95;;;12.95;;
67508;SDS011;54354;44.724;11.284;2022-07-23T00:51:57;19.90;;;12.63;;
67508;SDS011;54354;44.724;11.284;2022-07-23T00:54:26;19.13;;;13.07;;
67508;SDS011;54354;44.724;11.284;2022-07-23T00:56:53;21.48;;;12.63;;
67508;SDS011;54354;44.724;11.284;2022-07-23T00:59:19;23.50;;;12.43;;
67508;SDS011;54354;44.724;11.284;2022-07-23T01:01:44;20.42;;;12.35;;
67508;SDS011;54354;44.724;11.284;2022-07-23T01:04:12;16.85;;;12.32;;
67508;SDS011;54354;44.724;11.284;2022-07-23T01:06:40;16.35;;;12.57;;
67508;SDS011;54354;44.724;11.284;2022-07-23T01:09:06;20.08;;;12.80;;
67508;SDS011;54354;44.724;11.284;2022-07-23T01:11:33;16.50;;;13.20;;
67508;SDS011;54354;44.724;11.284;2022-07-23T01:14:07;24.25;;;14.05;;
67508;SDS011;54354;44.724;11.284;2022-07-23T01:16:37;20.80;;;12.35;;
67508;SDS011;54354;44.724;11.284;2022-07-23T01:19:02;23.02;;;13.57;;
67508;SDS011;54354;44.724;11.284;2022-07-23T01:21:32;20.17;;;13.15;;
67508;SDS011;54354;44.724;11.284;2022-07-23T01:24:04;18.88;;;12.50;;
67508;SDS011;54354;44.724;11.284;2022-07-23T01:26:32;29.40;;;13.15;;
67508;SDS011;54354;44.724;11.284;2022-07-23T01:28:58;22.00;;;13.30;;
67508;SDS011;54354;44.724;11.284;2022-07-23T01:31:25;26.08;;;13.90;;
67508;SDS011;54354;44.724;11.284;2022-07-23T01:33:51;28.15;;;13.73;;
67508;SDS011;54354;44.724;11.284;2022-07-23T01:36:17;22.42;;;13.43;;
67508;SDS011;54354;44.724;11.284;2022-07-23T01:38:42;21.70;;;13.05;;
67508;SDS011;54354;44.724;11.284;2022-07-23T01:41:08;25.27;;;13.07;;
67508;SDS011;54354;44.724;11.284;2022-07-23T01:43:33;17.10;;;12.25;;
67508;SDS011;54354;44.724;11.284;2022-07-23T01:45:59;19.65;;;12.80;;
67508;SDS011;54354;44.724;11.284;2022-07-23T01:48:29;17.67;;;11.82;;
67508;SDS011;54354;44.724;11.284;2022-07-23T01:51:19;14.43;;;11.05;;
67508;SDS011;54354;44.724;11.284;2022-07-23T01:53:52;15.98;;;11.35;;
67508;SDS011;54354;44.724;11.284;2022-07-23T01:56:18;16.02;;;11.32;;
67508;SDS011;54354;44.724;11.284;2022-07-23T01:58:46;19.63;;;11.30;;
67508;SDS011;54354;44.724;11.284;2022-07-23T02:01:13;18.98;;;11.15;;
67508;SDS011;54354;44.724;11.284;2022-07-23T02:03:39;15.30;;;10.32;;
67508;SDS011;54354;44.724;11.284;2022-07-23T02:06:05;13.63;;;10.77;;
67508;SDS011;54354;44.724;11.284;2022-07-23T02:08:30;15.65;;;10.82;;
67508;SDS011;54354;44.724;11.284;2022-07-23T02:10:56;14.23;;;10.60;;
67508;SDS011;54354;44.724;11.284;2022-07-23T02:13:21;18.35;;;10.63;;
67508;SDS011;54354;44.724;11.284;2022-07-23T02:15:47;15.73;;;11.25;;
67508;SDS011;54354;44.724;11.284;2022-07-23T02:18:13;14.40;;;10.23;;
67508;SDS011;54354;44.724;11.284;2022-07-23T02:20:39;17.23;;;10.35;;
67508;SDS011;54354;44.724;11.284;2022-07-23T02:23:06;13.15;;;10.30;;
67508;SDS011;54354;44.724;11.284;2022-07-23T02:25:33;15.00;;;10.45;;
67508;SDS011;54354;44.724;11.284;2022-07-23T02:28:00;15.93;;;10.15;;
67508;SDS011;54354;44.724;11.284;2022-07-23T02:30:26;20.80;;;10.98;;
67508;SDS011;54354;44.724;11.284;2022-07-23T02:32:51;16.95;;;11.40;;
67508;SDS011;54354;44.724;11.284;2022-07-23T02:35:17;15.80;;;11.70;;
67508;SDS011;54354;44.724;11.284;2022-07-23T02:37:42;17.83;;;11.55;;
67508;SDS011;54354;44.724;11.284;2022-07-23T02:40:08;16.25;;;11.70;;
67508;SDS011;54354;44.724;11.284;2022-07-23T02:42:37;15.50;;;11.55;;
67508;SDS011;54354;44.724;11.284;2022-07-23T02:45:04;15.75;;;11.80;;
67508;SDS011;54354;44.724;11.284;2022-07-23T02:47:30;18.90;;;12.90;;
67508;SDS011;54354;44.724;11.284;2022-07-23T02:49:58;23.50;;;13.07;;
67508;SDS011;54354;44.724;11.284;2022-07-23T02:52:24;20.98;;;12.30;;
67508;SDS011;54354;44.724;11.284;2022-07-23T02:54:50;18.45;;;11.93;;
67508;SDS011;54354;44.724;11.284;2022-07-23T02:57:15;22.77;;;13.02;;
67508;SDS011;54354;44.724;11.284;2022-07-23T02:59:41;18.40;;;12.10;;
67508;SDS011;54354;44.724;11.284;2022-07-23T03:02:07;24.35;;;12.73;;
67508;SDS011;54354;44.724;11.284;2022-07-23T03:04:32;19.65;;;13.25;;
67508;SDS011;54354;44.724;11.284;2022-07-23T03:06:58;20.90;;;13.52;;
67508;SDS011;54354;44.724;11.284;2022-07-23T03:09:24;16.48;;;13.90;;
67508;SDS011;54354;44.724;11.284;2022-07-23T03:11:51;19.35;;;13.00;;
67508;SDS011;54354;44.724;11.284;2022-07-23T03:14:18;23.08;;;13.43;;
67508;SDS011;54354;44.724;11.284;2022-07-23T03:16:44;26.23;;;13.57;;
67508;SDS011;54354;44.724;11.284;2022-07-23T03:19:09;22.48;;;14.20;;
67508;SDS011;54354;44.724;11.284;2022-07-23T03:21:35;20.65;;;13.15;;
67508;SDS011;54354;44.724;11.284;2022-07-23T03:26:31;24.95;;;13.90;;
67508;SDS011;54354;44.724;11.284;2022-07-23T03:28:57;20.65;;;13.25;;
67508;SDS011;54354;44.724;11.284;2022-07-23T03:31:23;19.50;;;14.25;;
67508;SDS011;54354;44.724;11.284;2022-07-23T03:33:48;23.20;;;13.90;;
67508;SDS011;54354;44.724;11.284;2022-07-23T03:36:14;22.15;;;14.15;;
67508;SDS011;54354;44.724;11.284;2022-07-23T03:38:41;22.55;;;14.18;;
67508;SDS011;54354;44.724;11.284;2022-07-23T03:41:07;17.63;;;14.63;;
67508;SDS011;54354;44.724;11.284;2022-07-23T03:43:33;20.80;;;14.52;;
67508;SDS011;54354;44.724;11.284;2022-07-23T03:45:58;21.48;;;12.52;;
67508;SDS011;54354;44.724;11.284;2022-07-23T03:48:24;22.42;;;13.75;;
67508;SDS011;54354;44.724;11.284;2022-07-23T03:50:49;27.33;;;13.50;;
67508;SDS011;54354;44.724;11.284;2022-07-23T03:53:16;18.05;;;13.15;;
67508;SDS011;54354;44.724;11.284;2022-07-23T03:55:41;21.92;;;13.48;;
67508;SDS011;54354;44.724;11.284;2022-07-23T03:58:07;24.27;;;13.70;;
67508;SDS011;54354;44.724;11.284;2022-07-23T04:00:33;19.20;;;13.20;;
67508;SDS011;54354;44.724;11.284;2022-07-23T04:02:58;25.77;;;13.82;;
67508;SDS011;54354;44.724;11.284;2022-07-23T04:05:24;19.63;;;13.75;;
67508;SDS011;54354;44.724;11.284;2022-07-23T04:07:56;18.33;;;13.65;;
67508;SDS011;54354;44.724;11.284;2022-07-23T04:10:22;22.27;;;14.75;;
67508;SDS011;54354;44.724;11.284;2022-07-23T04:12:48;18.92;;;13.50;;
67508;SDS011;54354;44.724;11.284;2022-07-23T04:15:14;26.75;;;13.07;;
67508;SDS011;54354;44.724;11.284;2022-07-23T04:17:40;42.05;;;13.65;;
67508;SDS011;54354;44.724;11.284;2022-07-23T04:20:05;18.45;;;12.90;;
67508;SDS011;54354;44.724;11.284;2022-07-23T04:22:38;19.05;;;13.77;;
67508;SDS011;54354;44.724;11.284;2022-07-23T04:25:04;23.95;;;13.82;;
67508;SDS011;54354;44.724;11.284;2022-07-23T04:27:30;23.88;;;14.25;;
67508;SDS011;54354;44.724;11.284;2022-07-23T04:29:58;22.77;;;13.75;;
67508;SDS011;54354;44.724;11.284;2022-07-23T04:32:24;21.58;;;14.43;;
67508;SDS011;54354;44.724;11.284;2022-07-23T04:34:50;24.40;;;13.88;;
67508;SDS011;54354;44.724;11.284;2022-07-23T04:37:17;21.80;;;14.55;;
67508;SDS011;54354;44.724;11.284;2022-07-23T04:39:42;21.48;;;14.02;;
67508;SDS011;54354;44.724;11.284;2022-07-23T04:42:10;24.85;;;14.50;;
67508;SDS011;54354;44.724;11.284;2022-07-23T04:44:36;28.02;;;15.85;;
67508;SDS011;54354;44.724;11.284;2022-07-23T04:47:03;29.42;;;16.60;;
67508;SDS011;54354;44.724;11.284;2022-07-23T04:49:29;27.45;;;16.70;;
67508;SDS011;54354;44.724;11.284;2022-07-23T04:51:54;30.98;;;17.42;;
67508;SDS011;54354;44.724;11.284;2022-07-23T04:54:20;29.20;;;17.58;;
67508;SDS011;54354;44.724;11.284;2022-07-23T04:56:45;29.13;;;17.88;;
67508;SDS011;54354;44.724;11.284;2022-07-23T04:59:11;26.88;;;18.48;;
67508;SDS011;54354;44.724;11.284;2022-07-23T05:01:39;29.33;;;18.70;;
67508;SDS011;54354;44.724;11.284;2022-07-23T05:04:04;25.52;;;18.17;;
67508;SDS011;54354;44.724;11.284;2022-07-23T05:06:33;31.77;;;19.35;;
67508;SDS011;54354;44.724;11.284;2022-07-23T05:08:58;29.92;;;17.13;;
67508;SDS011;54354;44.724;11.284;2022-07-23T05:11:24;26.35;;;16.77;;
67508;SDS011;54354;44.724;11.284;2022-07-23T05:13:49;27.10;;;17.77;;
67508;SDS011;54354;44.724;11.284;2022-07-23T05:16:18;29.17;;;16.25;;
67508;SDS011;54354;44.724;11.284;2022-07-23T05:18:47;28.35;;;16.45;;
67508;SDS011;54354;44.724;11.284;2022-07-23T05:21:12;21.70;;;15.68;;
67508;SDS011;54354;44.724;11.284;2022-07-23T05:23:38;26.58;;;16.17;;
67508;SDS011;54354;44.724;11.284;2022-07-23T05:26:03;31.48;;;15.40;;
67508;SDS011;54354;44.724;11.284;2022-07-23T05:28:31;28.40;;;14.88;;
67508;SDS011;54354;44.724;11.284;2022-07-23T05:30:56;22.20;;;14.63;;
67508;SDS011;54354;44.724;11.284;2022-07-23T05:33:22;24.58;;;14.20;;
67508;SDS011;54354;44.724;11.284;2022-07-23T05:35:48;23.77;;;13.10;;
67508;SDS011;54354;44.724;11.284;2022-07-23T05:38:26;21.92;;;13.40;;
67508;SDS011;54354;44.724;11.284;2022-07-23T05:40:53;15.70;;;12.32;;
67508;SDS011;54354;44.724;11.284;2022-07-23T05:43:19;19.20;;;11.93;;
67508;SDS011;54354;44.724;11.284;2022-07-23T05:45:45;26.08;;;11.70;;
67508;SDS011;54354;44.724;11.284;2022-07-23T05:48:11;23.67;;;12.75;;
67508;SDS011;54354;44.724;11.284;2022-07-23T05:50:46;21.58;;;12.48;;
67508;SDS011;54354;44.724;11.284;2022-07-23T05:53:29;16.95;;;11.07;;
67508;SDS011;54354;44.724;11.284;2022-07-23T05:56:00;21.55;;;11.02;;
67508;SDS011;54354;44.724;11.284;2022-07-23T05:58:27;25.15;;;11.50;;
67508;SDS011;54354;44.724;11.284;2022-07-23T06:00:53;23.33;;;10.75;;
67508;SDS011;54354;44.724;11.284;2022-07-23T06:03:18;27.10;;;9.90;;
67508;SDS011;54354;44.724;11.284;2022-07-23T06:05:45;24.15;;;9.50;;
67508;SDS011;54354;44.724;11.284;2022-07-23T06:08:10;22.05;;;10.15;;
67508;SDS011;54354;44.724;11.284;2022-07-23T06:10:36;16.38;;;8.77;;
67508;SDS011;54354;44.724;11.284;2022-07-23T06:13:02;18.55;;;9.23;;
67508;SDS011;54354;44.724;11.284;2022-07-23T06:15:27;21.83;;;9.45;;
67508;SDS011;54354;44.724;11.284;2022-07-23T06:17:53;360.55;;;21.83;;
67508;SDS011;54354;44.724;11.284;2022-07-23T06:20:19;27.73;;;8.80;;
67508;SDS011;54354;44.724;11.284;2022-07-23T06:22:44;17.02;;;8.27;;
67508;SDS011;54354;44.724;11.284;2022-07-23T06:25:10;103.95;;;10.85;;
67508;SDS011;54354;44.724;11.284;2022-07-23T06:27:36;111.85;;;11.63;;
67508;SDS011;54354;44.724;11.284;2022-07-23T06:30:02;19.67;;;8.35;;
67508;SDS011;54354;44.724;11.284;2022-07-23T06:32:27;22.55;;;7.80;;
67508;SDS011;54354;44.724;11.284;2022-07-23T06:34:53;12.85;;;7.38;;
67508;SDS011;54354;44.724;11.284;2022-07-23T06:37:20;18.38;;;7.55;;
67508;SDS011;54354;44.724;11.284;2022-07-23T06:39:45;15.38;;;6.60;;
67508;SDS011;54354;44.724;11.284;2022-07-23T06:42:11;14.02;;;7.28;;
67508;SDS011;54354;44.724;11.284;2022-07-23T06:44:42;15.50;;;6.70;;
67508;SDS011;54354;44.724;11.284;2022-07-23T06:47:08;21.92;;;6.70;;
67508;SDS011;54354;44.724;11.284;2022-07-23T06:49:34;22.65;;;6.95;;
67508;SDS011;54354;44.724;11.284;2022-07-23T06:52:00;24.88;;;6.07;;
67508;SDS011;54354;44.724;11.284;2022-07-23T06:54:25;13.15;;;6.88;;
67508;SDS011;54354;44.724;11.284;2022-07-23T06:56:50;25.33;;;6.88;;
67508;SDS011;54354;44.724;11.284;2022-07-23T06:59:16;12.02;;;6.25;;
67508;SDS011;54354;44.724;11.284;2022-07-23T07:01:42;18.30;;;6.70;;
67508;SDS011;54354;44.724;11.284;2022-07-23T07:04:07;19.40;;;6.40;;
67508;SDS011;54354;44.724;11.284;2022-07-23T07:06:33;19.52;;;6.65;;
67508;SDS011;54354;44.724;11.284;2022-07-23T07:08:58;15.93;;;6.40;;
67508;SDS011;54354;44.724;11.284;2022-07-23T07:11:24;15.93;;;6.95;;
67508;SDS011;54354;44.724;11.284;2022-07-23T07:13:50;11.55;;;6.75;;
67508;SDS011;54354;44.724;11.284;2022-07-23T07:16:16;12.95;;;7.28;;
67508;SDS011;54354;44.724;11.284;2022-07-23T07:18:41;12.07;;;5.57;;
67508;SDS011;54354;44.724;11.284;2022-07-23T07:21:07;11.05;;;5.32;;
67508;SDS011;54354;44.724;11.284;2022-07-23T07:23:32;14.30;;;5.35;;
67508;SDS011;54354;44.724;11.284;2022-07-23T07:25:58;10.55;;;5.93;;
67508;SDS011;54354;44.724;11.284;2022-07-23T07:28:23;16.23;;;5.65;;
67508;SDS011;54354;44.724;11.284;2022-07-23T07:30:49;8.77;;;6.00;;
67508;SDS011;54354;44.724;11.284;2022-07-23T07:33:15;11.32;;;6.35;;
67508;SDS011;54354;44.724;11.284;2022-07-23T07:35:40;10.93;;;6.38;;
67508;SDS011;54354;44.724;11.284;2022-07-23T07:38:05;11.23;;;5.95;;
67508;SDS011;54354;44.724;11.284;2022-07-23T07:40:31;7.38;;;6.07;;
67508;SDS011;54354;44.724;11.284;2022-07-23T07:42:56;7.78;;;4.97;;
67508;SDS011;54354;44.724;11.284;2022-07-23T07:45:23;13.38;;;4.80;;
67508;SDS011;54354;44.724;11.284;2022-07-23T07:47:49;8.52;;;5.25;;
67508;SDS011;54354;44.724;11.284;2022-07-23T07:50:16;7.88;;;6.03;;
67508;SDS011;54354;44.724;11.284;2022-07-23T07:52:42;12.95;;;6.47;;
67508;SDS011;54354;44.724;11.284;2022-07-23T07:55:08;8.00;;;6.30;;
67508;SDS011;54354;44.724;11.284;2022-07-23T07:57:34;6.95;;;4.93;;
67508;SDS011;54354;44.724;11.284;2022-07-23T08:00:00;9.30;;;6.28;;
67508;SDS011;54354;44.724;11.284;2022-07-23T08:02:26;9.77;;;7.20;;
67508;SDS011;54354;44.724;11.284;2022-07-23T08:04:52;8.95;;;7.20;;
67508;SDS011;54354;44.724;11.284;2022-07-23T08:07:18;10.43;;;6.72;;
67508;SDS011;54354;44.724;11.284;2022-07-23T08:09:43;16.75;;;7.32;;
67508;SDS011;54354;44.724;11.284;2022-07-23T08:12:09;12.30;;;7.15;;
67508;SDS011;54354;44.724;11.284;2022-07-23T08:14:34;15.63;;;7.50;;
67508;SDS011;54354;44.724;11.284;2022-07-23T08:17:00;8.73;;;6.45;;
67508;SDS011;54354;44.724;11.284;2022-07-23T08:19:25;15.43;;;7.03;;
67508;SDS011;54354;44.724;11.284;2022-07-23T08:21:51;14.85;;;7.10;;
67508;SDS011;54354;44.724;11.284;2022-07-23T08:24:16;29.45;;;7.38;;
67508;SDS011;54354;44.724;11.284;2022-07-23T08:26:42;10.48;;;6.43;;
67508;SDS011;54354;44.724;11.284;2022-07-23T08:29:07;17.27;;;6.70;;
67508;SDS011;54354;44.724;11.284;2022-07-23T08:31:33;9.75;;;6.00;;
67508;SDS011;54354;44.724;11.284;2022-07-23T08:33:59;10.73;;;6.32;;
67508;SDS011;54354;44.724;11.284;2022-07-23T08:36:25;7.68;;;6.80;;
67508;SDS011;54354;44.724;11.284;2022-07-23T08:38:53;8.65;;;7.00;;
67508;SDS011;54354;44.724;11.284;2022-07-23T08:41:19;11.63;;;6.20;;
67508;SDS011;54354;44.724;11.284;2022-07-23T08:43:46;13.70;;;7.00;;
67508;SDS011;54354;44.724;11.284;2022-07-23T08:46:11;11.90;;;5.72;;
67508;SDS011;54354;44.724;11.284;2022-07-23T08:48:38;11.13;;;6.55;;
67508;SDS011;54354;44.724;11.284;2022-07-23T08:51:05;11.20;;;5.50;;
67508;SDS011;54354;44.724;11.284;2022-07-23T08:53:32;13.25;;;6.80;;
67508;SDS011;54354;44.724;11.284;2022-07-23T08:55:59;9.85;;;6.07;;
67508;SDS011;54354;44.724;11.284;2022-07-23T08:58:27;11.25;;;6.00;;
67508;SDS011;54354;44.724;11.284;2022-07-23T09:00:52;11.60;;;6.10;;
67508;SDS011;54354;44.724;11.284;2022-07-23T09:03:22;12.80;;;6.30;;
67508;SDS011;54354;44.724;11.284;2022-07-23T09:05:51;14.43;;;5.85;;
67508;SDS011;54354;44.724;11.284;2022-07-23T09:08:24;14.93;;;5.28;;
67508;SDS011;54354;44.724;11.284;2022-07-23T09:18:51;12.60;;;6.10;;
67508;SDS011;54354;44.724;11.284;2022-07-23T09:21:31;12.20;;;5.22;;
67508;SDS011;54354;44.724;11.284;2022-07-23T09:24:02;11.73;;;6.07;;
67508;SDS011;54354;44.724;11.284;2022-07-23T09:29:12;7.40;;;5.50;;
67508;SDS011;54354;44.724;11.284;2022-07-23T09:31:45;12.48;;;5.93;;
67508;SDS011;54354;44.724;11.284;2022-07-23T09:34:23;9.23;;;5.10;;
67508;SDS011;54354;44.724;11.284;2022-07-23T09:36:49;7.90;;;6.13;;
67508;SDS011;54354;44.724;11.284;2022-07-23T09:39:21;11.07;;;6.13;;
67508;SDS011;54354;44.724;11.284;2022-07-23T09:41:51;12.25;;;5.97;;
67508;SDS011;54354;44.724;11.284;2022-07-23T09:44:17;8.77;;;5.57;;
67508;SDS011;54354;44.724;11.284;2022-07-23T09:46:45;10.00;;;6.25;;
67508;SDS011;54354;44.724;11.284;2022-07-23T09:49:16;8.30;;;6.18;;
67508;SDS011;54354;44.724;11.284;2022-07-23T09:51:53;13.13;;;6.65;;
67508;SDS011;54354;44.724;11.284;2022-07-23T09:54:24;23.27;;;6.82;;
67508;SDS011;54354;44.724;11.284;2022-07-23T09:56:51;11.80;;;6.70;;
67508;SDS011;54354;44.724;11.284;2022-07-23T09:59:25;8.10;;;5.78;;
67508;SDS011;54354;44.724;11.284;2022-07-23T10:01:53;10.73;;;6.85;;
67508;SDS011;54354;44.724;11.284;2022-07-23T10:04:21;11.77;;;6.82;;
67508;SDS011;54354;44.724;11.284;2022-07-23T10:07:08;11.27;;;7.82;;
67508;SDS011;54354;44.724;11.284;2022-07-23T10:10:11;11.50;;;7.20;;
67508;SDS011;54354;44.724;11.284;2022-07-23T10:12:56;12.65;;;7.25;;
67508;SDS011;54354;44.724;11.284;2022-07-23T10:15:21;15.57;;;7.68;;
67508;SDS011;54354;44.724;11.284;2022-07-23T10:17:48;13.00;;;7.80;;
67508;SDS011;54354;44.724;11.284;2022-07-23T10:20:13;14.23;;;7.53;;
67508;SDS011;54354;44.724;11.284;2022-07-23T10:22:44;14.68;;;6.28;;
67508;SDS011;54354;44.724;11.284;2022-07-23T10:25:24;19.33;;;5.97;;
67508;SDS011;54354;44.724;11.284;2022-07-23T10:28:08;10.30;;;7.22;;
67508;SDS011;54354;44.724;11.284;2022-07-23T10:31:50;9.90;;;5.22;;
67508;SDS011;54354;44.724;11.284;2022-07-23T10:37:00;10.30;;;6.03;;
67508;SDS011;54354;44.724;11.284;2022-07-23T10:39:34;16.77;;;6.15;;
67508;SDS011;54354;44.724;11.284;2022-07-23T10:42:10;13.30;;;6.43;;
67508;SDS011;54354;44.724;11.284;2022-07-23T10:44:44;10.32;;;4.80;;
67508;SDS011;54354;44.724;11.284;2022-07-23T10:47:12;9.48;;;5.68;;
67508;SDS011;54354;44.724;11.284;2022-07-23T10:58:02;17.65;;;6.82;;
67508;SDS011;54354;44.724;11.284;2022-07-23T11:02:56;11.48;;;6.53;;
67508;SDS011;54354;44.724;11.284;2022-07-23T11:05:40;13.48;;;6.32;;
67508;SDS011;54354;44.724;11.284;2022-07-23T11:08:10;14.68;;;6.30;;
67508;SDS011;54354;44.724;11.284;2022-07-23T11:23:58;8.93;;;6.63;;
67508;SDS011;54354;44.724;11.284;2022-07-23T11:32:07;14.88;;;6.90;;
67508;SDS011;54354;44.724;11.284;2022-07-23T11:34:34;11.80;;;6.45;;
67508;SDS011;54354;44.724;11.284;2022-07-23T11:37:00;11.82;;;6.70;;
67508;SDS011;54354;44.724;11.284;2022-07-23T11:39:28;13.85;;;7.35;;
67508;SDS011;54354;44.724;11.284;2022-07-23T11:41:54;10.90;;;6.60;;
67508;SDS011;54354;44.724;11.284;2022-07-23T11:44:25;9.98;;;6.95;;
67508;SDS011;54354;44.724;11.284;2022-07-23T11:47:01;8.35;;;6.80;;
67508;SDS011;54354;44.724;11.284;2022-07-23T11:49:29;12.13;;;6.63;;
67508;SDS011;54354;44.724;11.284;2022-07-23T11:54:35;7.80;;;7.00;;
67508;SDS011;54354;44.724;11.284;2022-07-23T11:57:11;9.00;;;6.32;;
67508;SDS011;54354;44.724;11.284;2022-07-23T11:59:36;10.02;;;6.18;;
67508;SDS011;54354;44.724;11.284;2022-07-23T12:02:05;10.02;;;6.63;;
67508;SDS011;54354;44.724;11.284;2022-07-23T12:04:45;11.75;;;6.60;;
67508;SDS011;54354;44.724;11.284;2022-07-23T12:09:50;9.18;;;6.68;;
67508;SDS011;54354;44.724;11.284;2022-07-23T12:12:15;8.93;;;6.45;;
67508;SDS011;54354;44.724;11.284;2022-07-23T12:14:51;10.45;;;6.43;;
67508;SDS011;54354;44.724;11.284;2022-07-23T12:17:18;9.07;;;6.40;;
67508;SDS011;54354;44.724;11.284;2022-07-23T12:19:45;8.48;;;5.75;;
67508;SDS011;54354;44.724;11.284;2022-07-23T12:22:13;7.97;;;5.90;;
67508;SDS011;54354;44.724;11.284;2022-07-23T12:24:56;7.07;;;6.10;;
67508;SDS011;54354;44.724;11.284;2022-07-23T12:27:23;7.20;;;5.70;;
67508;SDS011;54354;44.724;11.284;2022-07-23T12:29:49;8.82;;;6.25;;
67508;SDS011;54354;44.724;11.284;2022-07-23T12:34:44;11.52;;;5.88;;
67508;SDS011;54354;44.724;11.284;2022-07-23T12:37:28;8.00;;;5.57;;
67508;SDS011;54354;44.724;11.284;2022-07-23T12:40:03;10.10;;;5.65;;
67508;SDS011;54354;44.724;11.284;2022-07-23T12:42:44;6.78;;;5.38;;
67508;SDS011;54354;44.724;11.284;2022-07-23T12:45:11;7.13;;;5.25;;
67508;SDS011;54354;44.724;11.284;2022-07-23T12:47:53;9.55;;;5.60;;
67508;SDS011;54354;44.724;11.284;2022-07-23T12:53:26;7.43;;;5.13;;
67508;SDS011;54354;44.724;11.284;2022-07-23T13:03:53;8.75;;;5.57;;
67508;SDS011;54354;44.724;11.284;2022-07-23T13:06:44;6.85;;;4.95;;
67508;SDS011;54354;44.724;11.284;2022-07-23T13:09:13;8.20;;;5.32;;
67508;SDS011;54354;44.724;11.284;2022-07-23T13:11:40;7.18;;;5.38;;
67508;SDS011;54354;44.724;11.284;2022-07-23T13:14:06;7.75;;;5.18;;
67508;SDS011;54354;44.724;11.284;2022-07-23T13:16:32;7.72;;;5.38;;
67508;SDS011;54354;44.724;11.284;2022-07-23T13:18:58;6.70;;;5.43;;
67508;SDS011;54354;44.724;11.284;2022-07-23T13:21:25;6.40;;;5.40;;
67508;SDS011;54354;44.724;11.284;2022-07-23T13:23:52;8.27;;;5.57;;
67508;SDS011;54354;44.724;11.284;2022-07-23T13:26:18;10.40;;;5.90;;
67508;SDS011;54354;44.724;11.284;2022-07-23T13:28:43;18.48;;;6.53;;
67508;SDS011;54354;44.724;11.284;2022-07-23T13:31:09;14.88;;;6.55;;
67508;SDS011;54354;44.724;11.284;2022-07-23T13:33:34;19.55;;;7.28;;
67508;SDS011;54354;44.724;11.284;2022-07-23T13:36:00;33.60;;;7.85;;
67508;SDS011;54354;44.724;11.284;2022-07-23T13:38:26;29.75;;;7.75;;
67508;SDS011;54354;44.724;11.284;2022-07-23T13:40:53;44.78;;;9.98;;
67508;SDS011;54354;44.724;11.284;2022-07-23T13:43:19;40.10;;;9.27;;
67508;SDS011;54354;44.724;11.284;2022-07-23T13:45:47;33.75;;;8.57;;
67508;SDS011;54354;44.724;11.284;2022-07-23T13:48:14;27.02;;;7.60;;
67508;SDS011;54354;44.724;11.284;2022-07-23T13:50:40;23.85;;;7.25;;
67508;SDS011;54354;44.724;11.284;2022-07-23T13:53:10;22.17;;;6.97;;
67508;SDS011;54354;44.724;11.284;2022-07-23T13:55:38;19.80;;;7.30;;
67508;SDS011;54354;44.724;11.284;2022-07-23T13:58:04;24.75;;;6.97;;
67508;SDS011;54354;44.724;11.284;2022-07-23T14:00:31;21.80;;;6.68;;
67508;SDS011;54354;44.724;11.284;2022-07-23T14:02:59;23.10;;;6.63;;
67508;SDS011;54354;44.724;11.284;2022-07-23T14:05:25;20.17;;;6.43;;
67508;SDS011;54354;44.724;11.284;2022-07-23T14:07:51;20.20;;;7.07;;
67508;SDS011;54354;44.724;11.284;2022-07-23T14:10:18;21.30;;;7.00;;
67508;SDS011;54354;44.724;11.284;2022-07-23T14:12:46;15.93;;;6.15;;
67508;SDS011;54354;44.724;11.284;2022-07-23T14:15:12;20.02;;;6.03;;
67508;SDS011;54354;44.724;11.284;2022-07-23T14:17:39;19.45;;;6.00;;
67508;SDS011;54354;44.724;11.284;2022-07-23T14:20:07;7.85;;;5.97;;
67508;SDS011;54354;44.724;11.284;2022-07-23T14:22:33;16.30;;;5.95;;
67508;SDS011;54354;44.724;11.284;2022-07-23T14:24:59;11.75;;;6.05;;
67508;SDS011;54354;44.724;11.284;2022-07-23T14:27:25;9.10;;;5.43;;
67508;SDS011;54354;44.724;11.284;2022-07-23T14:29:52;16.10;;;6.18;;
67508;SDS011;54354;44.724;11.284;2022-07-23T14:32:18;14.82;;;5.47;;
67508;SDS011;54354;44.724;11.284;2022-07-23T14:34:43;10.65;;;5.68;;
67508;SDS011;54354;44.724;11.284;2022-07-23T14:37:09;7.88;;;5.40;;
67508;SDS011;54354;44.724;11.284;2022-07-23T14:39:36;8.02;;;6.00;;
67508;SDS011;54354;44.724;11.284;2022-07-23T14:42:02;13.88;;;6.13;;
67508;SDS011;54354;44.724;11.284;2022-07-23T14:44:28;8.25;;;6.00;;
67508;SDS011;54354;44.724;11.284;2022-07-23T14:46:53;11.60;;;6.18;;
67508;SDS011;54354;44.724;11.284;2022-07-23T14:49:19;12.93;;;5.63;;
67508;SDS011;54354;44.724;11.284;2022-07-23T14:51:44;14.35;;;5.97;;
67508;SDS011;54354;44.724;11.284;2022-07-23T14:54:10;11.10;;;6.00;;
67508;SDS011;54354;44.724;11.284;2022-07-23T14:56:36;11.85;;;6.07;;
67508;SDS011;54354;44.724;11.284;2022-07-23T14:59:02;9.05;;;5.50;;
67508;SDS011;54354;44.724;11.284;2022-07-23T15:01:28;7.63;;;5.97;;
67508;SDS011;54354;44.724;11.284;2022-07-23T15:03:54;12.57;;;5.60;;
67508;SDS011;54354;44.724;11.284;2022-07-23T15:06:20;10.48;;;6.32;;
67508;SDS011;54354;44.724;11.284;2022-07-23T15:08:45;12.45;;;5.97;;
67508;SDS011;54354;44.724;11.284;2022-07-23T15:11:11;10.13;;;6.07;;
67508;SDS011;54354;44.724;11.284;2022-07-23T15:13:37;11.55;;;5.50;;
67508;SDS011;54354;44.724;11.284;2022-07-23T15:16:03;7.80;;;5.50;;
67508;SDS011;54354;44.724;11.284;2022-07-23T15:18:30;7.43;;;5.63;;
67508;SDS011;54354;44.724;11.284;2022-07-23T15:20:55;7.03;;;5.57;;
67508;SDS011;54354;44.724;11.284;2022-07-23T15:23:22;10.32;;;6.10;;
67508;SDS011;54354;44.724;11.284;2022-07-23T15:25:47;9.40;;;6.60;;